首页
METAR-TAF:

METAR-TAF

机场 :

沙托鲁, 法国

纬度: 46-51N, 经度: 001-43E, 海拔: 160米

当前天气观测

该预报发布于26分钟前的13:30 UTC
风速7节,风向南转南东,在东转东南之间变化
温度 24°C
湿度 34%
气压 1020 hPa
能见度10公里或以上
1500米以下无云,无积雨云

METAR: LFLX 101330Z AUTO 16007KT 110V190 CAVOK 24/07 Q1020 NOSIG

时间: 15:56 (13:56 UTC)

预报

该预报发布于2小时和56分钟前的11:00 UTC
预报有效从10日的 12点(UTC)到 11日的 18点(UTC)
风速8节,风向
能见度10公里或以上
1500米以下无云,无积雨云
几率 30% :
短暂存在
从 11日的 12点(UTC)到 11日的 17点(UTC)
少量云层高于6000英尺, 塔状积云.

TAF: LFLX 101100Z 1012/1118 09008KT CAVOK PROB30 TEMPO 1112/1117 FEW060TCU

超过4000个机场的气象观测和天气预报(METAR&TAF报告)。

可查询的气象台以黄色和红色小点在地图上表示。

将鼠标移到小点上方,可查看气象台名称。

然后点击查看天气观测和预报。

如需切换地图:点击带黑十字的绿色按钮放大地图;点击带横线的绿色按钮缩小地图;或者点击绿色箭头查看邻近地区的地图。


METAR-TAF: